Time;durP1;ratioP1;P1;durP2;ratioP2;P2;SDS_P1;SDS_P2;PMS_P1;PMS_P2;Temp;Humidity;BMP_temperature;BMP_pressure;BME280_temperature;BME280_humidity;BME280_pressure;Samples;Min_cycle;Max_cycle;Signal;HPM_P1;HPM_P2
2021/12/10 00:01:03;;;;;;;5.10;3.42;;;10.00;99.90;;;;;;5120118;27;20040;-59
2021/12/10 00:03:34;;;;;;;4.68;3.42;;;10.10;99.90;;;;;;5106398;28;20038;-60
2021/12/10 00:06:10;;;;;;;5.55;3.13;;;10.20;99.90;;;;;;5111136;28;20040;-58
2021/12/10 00:08:39;;;;;;;;;;;10.30;99.90;;;;;;5092791;27;20382;-59
2021/12/10 00:11:15;;;;;;;7.38;3.95;;;10.30;99.90;;;;;;5113513;27;19916;-59
2021/12/10 00:13:45;;;;;;;9.20;4.22;;;10.30;99.90;;;;;;5102635;28;20035;-59
2021/12/10 00:16:16;;;;;;;3.85;2.53;;;10.30;99.90;;;;;;5095638;28;20047;-59
2021/12/10 00:18:51;;;;;;;8.65;3.20;;;10.40;99.90;;;;;;5108151;28;20070;-59
2021/12/10 00:21:24;;;;;;;5.95;3.13;;;10.30;99.90;;;;;;5102921;28;20481;-59
2021/12/10 00:23:54;;;;;;;4.30;2.95;;;10.20;99.90;;;;;;5102847;28;20044;-59
2021/12/10 00:26:22;;;;;;;4.05;2.70;;;10.20;99.90;;;;;;5075457;28;20070;-59
2021/12/10 00:28:51;;;;;;;5.82;2.33;;;10.20;99.90;;;;;;5107930;28;20131;-59
2021/12/10 00:34:14;;;;;;;5.53;2.92;;;10.00;99.90;;;;;;5114686;28;20557;-59
2021/12/10 00:36:43;;;;;;;6.50;2.83;;;9.90;99.90;;;;;;5116858;27;20031;-59
2021/12/10 00:39:16;;;;;;;6.72;2.33;;;10.00;99.90;;;;;;5110840;28;20031;-59
2021/12/10 00:41:44;;;;;;;3.97;2.25;;;10.00;99.90;;;;;;5120923;27;20035;-59
2021/12/10 00:44:12;;;;;;;4.78;2.47;;;9.90;99.90;;;;;;5075699;28;20036;-59
2021/12/10 00:46:40;;;;;;;6.13;2.53;;;10.00;99.90;;;;;;5092447;28;20408;-59
2021/12/10 00:49:08;;;;;;;4.03;2.00;;;10.00;99.90;;;;;;5091963;28;20516;-59
2021/12/10 00:51:37;;;;;;;3.35;1.92;;;10.00;99.90;;;;;;5090443;28;20384;-59
2021/12/10 00:54:08;;;;;;;2.50;1.95;;;10.00;99.90;;;;;;5106566;28;20055;-59
2021/12/10 00:56:35;;;;;;;4.55;1.90;;;10.00;99.90;;;;;;5105440;28;20066;-58
2021/12/10 00:59:04;;;;;;;4.57;2.45;;;10.00;99.90;;;;;;5112952;28;20134;-59
2021/12/10 01:01:33;;;;;;;6.35;2.00;;;9.90;99.90;;;;;;5109921;28;20119;-60
2021/12/10 01:04:12;;;;;;;4.97;2.20;;;10.00;99.90;;;;;;5086431;28;20036;-59
2021/12/10 01:06:42;;;;;;;5.15;2.08;;;10.00;99.90;;;;;;5105334;28;20085;-59
2021/12/10 01:09:15;;;;;;;4.50;2.17;;;10.10;99.90;;;;;;5103740;28;20069;-59
2021/12/10 01:11:49;;;;;;;4.47;2.15;;;10.00;99.90;;;;;;5102936;28;20407;-58
2021/12/10 01:26:08;;;;;;;3.92;2.00;;;10.40;99.90;;;;;;5106757;28;20592;-59
2021/12/10 01:28:39;;;;;;;4.57;1.50;;;10.40;99.90;;;;;;5088891;28;20043;-59
2021/12/10 01:31:07;;;;;;;3.38;1.60;;;10.50;99.90;;;;;;5114233;28;20046;-58
2021/12/10 01:33:35;;;;;;;4.95;1.85;;;10.50;99.90;;;;;;5094486;28;20040;-59
2021/12/10 01:36:07;;;;;;;4.93;2.67;;;10.50;99.90;;;;;;5113935;28;20050;-58
2021/12/10 01:38:41;;;;;;;5.03;2.65;;;10.50;99.90;;;;;;5096269;28;20126;-58
2021/12/10 01:41:13;;;;;;;3.67;2.00;;;10.50;99.90;;;;;;5095436;28;20104;-59
2021/12/10 01:43:43;;;;;;;4.22;2.58;;;10.50;99.90;;;;;;5096203;28;20103;-60
2021/12/10 01:46:24;;;;;;;3.45;1.80;;;10.40;99.90;;;;;;5079306;28;20138;-59
2021/12/10 01:48:55;;;;;;;3.83;2.13;;;10.40;99.90;;;;;;5095666;28;20044;-59
2021/12/10 01:51:27;;;;;;;4.93;1.83;;;10.40;99.90;;;;;;5079291;28;20039;-59
2021/12/10 01:54:02;;;;;;;6.47;2.75;;;10.40;99.90;;;;;;5106027;28;20050;-57
2021/12/10 01:56:32;;;;;;;3.95;2.03;;;10.40;99.90;;;;;;5096265;28;20040;-58
2021/12/10 01:59:01;;;;;;;3.53;1.92;;;10.40;99.90;;;;;;5096024;28;20035;-58
2021/12/10 02:01:33;;;;;;;4.35;1.65;;;10.40;99.90;;;;;;5095952;28;20036;-58
2021/12/10 02:04:05;;;;;;;5.65;2.30;;;10.40;99.90;;;;;;5095958;28;20042;-58
2021/12/10 02:06:32;;;;;;;4.53;1.33;;;10.40;99.90;;;;;;5113915;28;20036;-58
2021/12/10 02:09:00;;;;;;;2.33;1.48;;;10.40;99.90;;;;;;5116695;28;20080;-58
2021/12/10 02:11:27;;;;;;;3.58;1.73;;;10.40;99.90;;;;;;5118054;28;20054;-58
2021/12/10 02:13:55;;;;;;;7.40;2.45;;;10.40;99.90;;;;;;5082752;28;20050;-58
2021/12/10 02:16:22;;;;;;;6.18;2.35;;;10.40;99.90;;;;;;5117794;28;20050;-58
2021/12/10 02:18:50;;;;;;;4.05;2.40;;;10.40;99.90;;;;;;5117825;28;20070;-58
2021/12/10 02:21:21;;;;;;;3.53;1.70;;;10.40;99.90;;;;;;5099824;28;20474;-57
2021/12/10 02:23:57;;;;;;;4.45;1.70;;;10.40;99.90;;;;;;5083080;28;20054;-57
2021/12/10 02:26:41;;;;;;;3.50;2.08;;;10.30;99.90;;;;;;5117817;28;20039;-57
2021/12/10 02:29:09;;;;;;;4.18;1.73;;;10.40;99.90;;;;;;5117569;28;20039;-57
2021/12/10 02:31:37;;;;;;;4.88;2.20;;;10.30;99.90;;;;;;5099296;28;20073;-57
2021/12/10 02:34:05;;;;;;;3.38;1.83;;;10.30;99.90;;;;;;5117566;28;20104;-59
2021/12/10 02:36:33;;;;;;;4.20;1.70;;;10.40;99.90;;;;;;5117528;28;20035;-59
2021/12/10 02:39:01;;;;;;;2.70;1.40;;;10.40;99.90;;;;;;5117375;28;20500;-59
2021/12/10 02:41:33;;;;;;;3.05;1.75;;;10.40;99.90;;;;;;5099320;28;20044;-58
2021/12/10 02:44:02;;;;;;;2.72;1.20;;;10.40;99.90;;;;;;5082210;28;20040;-59
2021/12/10 02:46:30;;;;;;;2.13;1.30;;;10.50;99.90;;;;;;5117317;28;20044;-58
2021/12/10 02:48:58;;;;;;;3.05;1.20;;;10.50;99.90;;;;;;5099203;28;20145;-58
2021/12/10 02:51:26;;;;;;;2.78;1.40;;;10.40;99.90;;;;;;5117254;28;20060;-58
2021/12/10 02:53:54;;;;;;;8.70;2.55;;;10.50;99.90;;;;;;5117388;28;20122;-59
2021/12/10 02:56:23;;;;;;;1.58;1.05;;;10.40;99.90;;;;;;5117110;28;20031;-58
2021/12/10 02:58:54;;;;;;;1.52;0.90;;;10.50;99.90;;;;;;5099238;28;20123;-59
2021/12/10 03:01:28;;;;;;;1.88;0.88;;;10.50;99.90;;;;;;5117315;28;20065;-58
2021/12/10 03:03:56;;;;;;;1.33;0.90;;;10.50;99.90;;;;;;5116958;28;20486;-57
2021/12/10 03:06:26;;;;;;;1.73;0.82;;;10.50;99.90;;;;;;5116928;28;20473;-58
2021/12/10 03:08:55;;;;;;;3.03;1.10;;;10.50;99.90;;;;;;5082216;28;20437;-58
2021/12/10 03:11:33;;;;;;;3.28;1.52;;;10.50;99.90;;;;;;5117172;28;20031;-58
2021/12/10 03:14:06;;;;;;;3.17;1.05;;;10.50;99.90;;;;;;5099186;28;20130;-58
2021/12/10 03:16:35;;;;;;;2.00;1.02;;;10.40;99.90;;;;;;5082036;28;20066;-58
2021/12/10 03:19:04;;;;;;;1.73;0.95;;;10.40;99.90;;;;;;5098574;28;20031;-58
2021/12/10 03:21:33;;;;;;;1.42;1.00;;;10.40;99.90;;;;;;5098166;28;20043;-58
2021/12/10 03:24:01;;;;;;;2.78;1.08;;;10.30;99.90;;;;;;5098209;28;20046;-58
2021/12/10 03:26:28;;;;;;;1.42;1.00;;;10.30;99.90;;;;;;5098687;28;20047;-57
2021/12/10 03:28:57;;;;;;;2.50;1.75;;;10.30;99.90;;;;;;5081678;28;20423;-57
2021/12/10 03:31:26;;;;;;;1.58;0.90;;;10.20;99.90;;;;;;5098856;28;20416;-57
2021/12/10 03:33:55;;;;;;;2.65;0.90;;;10.20;99.90;;;;;;5116478;28;20068;-58
2021/12/10 03:36:23;;;;;;;1.58;0.88;;;10.20;99.90;;;;;;5116435;28;20118;-57
2021/12/10 03:38:52;;;;;;;1.55;1.02;;;10.20;99.90;;;;;;5116313;28;20362;-57
2021/12/10 03:41:20;;;;;;;2.10;1.83;;;10.20;99.90;;;;;;5116172;28;20048;-57
2021/12/10 03:43:49;;;;;;;5.75;1.20;;;10.20;99.90;;;;;;5116296;28;20031;-57
2021/12/10 03:46:18;;;;;;;2.15;1.05;;;10.10;99.90;;;;;;5081150;28;20093;-58
2021/12/10 03:48:46;;;;;;;1.77;0.88;;;10.10;99.90;;;;;;5080922;28;20063;-58
2021/12/10 03:51:24;;;;;;;2.92;1.27;;;9.80;99.90;;;;;;5080479;28;20516;-57
2021/12/10 03:53:52;;;;;;;2.13;0.90;;;9.60;99.90;;;;;;5081381;28;20063;-58
2021/12/10 03:56:22;;;;;;;3.30;1.10;;;9.40;99.90;;;;;;5081353;28;20039;-57
2021/12/10 03:58:51;;;;;;;2.03;1.60;;;9.30;99.90;;;;;;5115941;28;20063;-58
2021/12/10 04:01:25;;;;;;;2.65;1.15;;;9.30;99.90;;;;;;5080767;28;20097;-59
2021/12/10 04:03:55;;;;;;;5.53;1.77;;;9.30;99.90;;;;;;5097730;28;20424;-58
2021/12/10 04:06:23;;;;;;;2.97;0.98;;;9.40;99.90;;;;;;5115795;28;20118;-58
2021/12/10 04:08:53;;;;;;;1.80;1.15;;;9.40;99.90;;;;;;5097589;28;20131;-57
2021/12/10 04:11:21;;;;;;;3.63;2.55;;;9.40;99.90;;;;;;5115598;28;20035;-59
2021/12/10 04:13:51;;;;;;;1.10;0.73;;;9.50;99.90;;;;;;5080830;28;20091;-59
2021/12/10 04:16:21;;;;;;;2.90;1.00;;;9.50;99.90;;;;;;5097755;28;20389;-59
2021/12/10 04:18:52;;;;;;;10.13;6.00;;;9.50;99.90;;;;;;5115330;28;20054;-58
2021/12/10 04:21:20;;;;;;;86.43;45.92;;;9.50;99.90;;;;;;5097559;28;20044;-58
2021/12/10 04:23:49;;;;;;;63.13;31.75;;;9.50;99.90;;;;;;5115778;28;20084;-58
2021/12/10 04:26:19;;;;;;;34.63;15.77;;;9.50;99.90;;;;;;5115458;28;20091;-59
2021/12/10 04:28:47;;;;;;;18.40;9.30;;;9.60;99.90;;;;;;5097078;28;20427;-58
2021/12/10 04:31:15;;;;;;;9.52;4.68;;;9.60;99.90;;;;;;5114414;28;20161;-59
2021/12/10 04:33:43;;;;;;;5.72;2.92;;;9.60;99.90;;;;;;5115391;28;20086;-58
2021/12/10 04:36:11;;;;;;;7.47;3.17;;;9.60;99.90;;;;;;5080563;28;20084;-58
2021/12/10 04:38:39;;;;;;;3.92;1.83;;;9.60;99.90;;;;;;5097061;28;20043;-58
2021/12/10 04:41:09;;;;;;;2.97;1.20;;;9.60;99.90;;;;;;5115174;28;20035;-57
2021/12/10 04:43:40;;;;;;;2.60;1.38;;;9.60;99.90;;;;;;5097054;28;20477;-57
2021/12/10 04:46:08;;;;;;;2.35;0.85;;;9.60;99.90;;;;;;5096818;28;20460;-59
2021/12/10 04:48:49;;;;;;;4.80;1.45;;;9.50;99.90;;;;;;5096478;28;20052;-57
2021/12/10 04:51:17;;;;;;;2.50;1.30;;;9.60;99.90;;;;;;5114923;28;20034;-58
2021/12/10 04:53:45;;;;;;;4.90;1.40;;;9.50;99.90;;;;;;5114955;28;20531;-57
2021/12/10 04:56:13;;;;;;;2.65;1.20;;;9.50;99.90;;;;;;5114792;28;20040;-58
2021/12/10 04:58:41;;;;;;;2.35;1.73;;;9.50;99.90;;;;;;5114775;28;20031;-57
2021/12/10 05:01:09;;;;;;;3.90;1.40;;;9.50;99.90;;;;;;5114851;28;20081;-58
2021/12/10 05:03:36;;;;;;;3.72;1.13;;;9.60;99.90;;;;;;5114791;28;20035;-58
2021/12/10 05:06:04;;;;;;;2.50;1.23;;;9.50;99.90;;;;;;5114649;28;20059;-58
2021/12/10 05:08:33;;;;;;;2.45;1.70;;;9.50;99.90;;;;;;5063103;28;20392;-58
2021/12/10 05:11:03;;;;;;;2.03;0.80;;;9.50;99.90;;;;;;5079601;28;20116;-58
2021/12/10 05:13:30;;;;;;;6.88;1.20;;;9.50;99.90;;;;;;5096276;28;20122;-58
2021/12/10 05:15:58;;;;;;;3.65;1.30;;;9.50;99.90;;;;;;5096520;28;20035;-58
2021/12/10 05:18:30;;;;;;;1.48;1.00;;;9.40;99.90;;;;;;5096429;28;20031;-58
2021/12/10 05:20:59;;;;;;;2.55;1.58;;;9.30;99.90;;;;;;5114618;28;20070;-58
2021/12/10 05:23:26;;;;;;;2.25;1.50;;;9.30;99.90;;;;;;5114392;28;20119;-58
2021/12/10 05:25:54;;;;;;;2.03;1.73;;;9.30;99.90;;;;;;5076435;28;20078;-58
2021/12/10 05:28:22;;;;;;;3.17;1.25;;;9.30;99.90;;;;;;5110065;28;20085;-57
2021/12/10 05:30:54;;;;;;;2.67;1.85;;;9.20;99.90;;;;;;5114394;28;20096;-58
2021/12/10 05:33:23;;;;;;;4.22;1.73;;;9.20;99.90;;;;;;5096089;28;20041;-57
2021/12/10 05:35:52;;;;;;;6.97;2.22;;;9.30;99.90;;;;;;5113901;28;20411;-58
2021/12/10 05:38:21;;;;;;;4.15;1.75;;;9.30;99.90;;;;;;5096204;28;20521;-57
2021/12/10 05:40:52;;;;;;;3.70;1.70;;;9.40;99.90;;;;;;5114373;28;20365;-58
2021/12/10 05:43:21;;;;;;;3.38;2.22;;;9.40;99.90;;;;;;5114092;28;20039;-58
2021/12/10 05:45:50;;;;;;;3.70;1.95;;;9.40;99.90;;;;;;5095938;28;20483;-58
2021/12/10 05:48:18;;;;;;;2.97;1.10;;;9.40;99.90;;;;;;5095810;28;20043;-58
2021/12/10 05:50:46;;;;;;;4.22;2.10;;;9.40;99.90;;;;;;5096266;28;20036;-57
2021/12/10 05:53:14;;;;;;;5.65;1.35;;;9.30;99.90;;;;;;5113976;28;20067;-57
2021/12/10 05:55:44;;;;;;;6.00;2.22;;;9.30;99.90;;;;;;5113809;28;20036;-56
2021/12/10 05:58:12;;;;;;;4.00;1.50;;;9.20;99.90;;;;;;5113732;28;20036;-58
2021/12/10 06:00:47;;;;;;;3.90;1.60;;;9.20;99.90;;;;;;5096012;28;20059;-57
2021/12/10 06:03:16;;;;;;;2.53;1.35;;;9.20;99.90;;;;;;5095947;28;20047;-56
2021/12/10 06:05:46;;;;;;;5.15;1.23;;;9.20;99.90;;;;;;5095656;28;20077;-57
2021/12/10 06:08:14;;;;;;;4.40;1.45;;;9.10;99.90;;;;;;5095479;28;20468;-57
2021/12/10 06:10:42;;;;;;;6.38;1.70;;;9.20;99.90;;;;;;5095794;28;20438;-57
2021/12/10 06:13:10;;;;;;;5.80;1.50;;;9.10;99.90;;;;;;5113699;28;20039;-58
2021/12/10 06:15:38;;;;;;;3.22;1.73;;;9.10;99.90;;;;;;5113777;28;20060;-57
2021/12/10 06:18:07;;;;;;;5.57;2.33;;;9.20;99.90;;;;;;5078817;28;20134;-57
2021/12/10 06:20:39;;;;;;;3.28;1.60;;;9.30;99.90;;;;;;5079093;28;20488;-57
2021/12/10 06:23:07;;;;;;;2.25;1.23;;;9.40;99.90;;;;;;5113881;28;20046;-57
2021/12/10 06:25:36;;;;;;;3.92;1.40;;;9.50;99.90;;;;;;5095464;28;20100;-56
2021/12/10 06:28:05;;;;;;;3.65;1.67;;;9.60;99.90;;;;;;5113806;28;20035;-59
2021/12/10 06:30:40;;;;;;;4.88;1.73;;;9.80;99.90;;;;;;5078862;28;20489;-59
2021/12/10 06:33:12;;;;;;;6.03;1.92;;;9.90;99.90;;;;;;5095654;28;20079;-59
2021/12/10 06:35:42;;;;;;;4.28;2.28;;;10.30;99.90;;;;;;5113651;28;20088;-58
2021/12/10 06:38:11;;;;;;;8.75;2.83;;;10.60;99.90;;;;;;5113298;28;20478;-59
2021/12/10 06:40:40;;;;;;;6.70;3.00;;;10.80;99.90;;;;;;5095357;28;20097;-58
2021/12/10 06:43:09;;;;;;;5.53;3.92;;;11.10;99.90;;;;;;5113368;28;20032;-59
2021/12/10 06:45:39;;;;;;;3.25;1.42;;;11.20;99.90;;;;;;5113689;28;20036;-58
2021/12/10 06:48:08;;;;;;;7.53;2.22;;;11.10;99.90;;;;;;5095121;28;20465;-57
2021/12/10 06:50:42;;;;;;;7.10;1.83;;;10.90;99.90;;;;;;5113605;28;20032;-59
2021/12/10 06:53:10;;;;;;;1.80;1.40;;;10.90;99.90;;;;;;5079161;28;20047;-59
2021/12/10 06:55:38;;;;;;;2.70;1.30;;;10.90;99.90;;;;;;5115296;28;20035;-58
2021/12/10 06:58:07;;;;;;;4.35;1.73;;;10.80;99.90;;;;;;5099125;28;20131;-58
2021/12/10 07:00:48;;;;;;;3.47;1.73;;;10.70;99.90;;;;;;5117223;28;20089;-57
2021/12/10 07:03:19;;;;;;;4.90;2.35;;;10.60;99.90;;;;;;5116969;28;20065;-57
2021/12/10 07:05:48;;;;;;;6.63;2.67;;;10.50;99.90;;;;;;5117194;28;20068;-57
2021/12/10 07:08:17;;;;;;;7.15;3.55;;;10.30;99.90;;;;;;5081843;28;20040;-59
2021/12/10 07:10:46;;;;;;;5.55;2.53;;;10.00;99.90;;;;;;5117327;28;20127;-57
2021/12/10 07:13:15;;;;;;;7.22;3.10;;;10.00;99.90;;;;;;5099099;28;20051;-57
2021/12/10 07:15:48;;;;;;;5.22;2.75;;;10.10;99.90;;;;;;5081912;28;20040;-58
2021/12/10 07:18:19;;;;;;;12.35;4.63;;;10.50;99.90;;;;;;5098606;28;20036;-58
2021/12/10 07:20:47;;;;;;;8.25;3.70;;;11.20;99.90;;;;;;5098956;28;20056;-58
2021/12/10 07:23:15;;;;;;;15.77;5.07;;;12.30;99.90;;;;;;5116895;28;20059;-58
2021/12/10 07:25:43;;;;;;;9.07;3.58;;;13.40;99.90;;;;;;5065251;28;20044;-58
2021/12/10 07:28:11;;;;;;;8.52;3.53;;;14.00;99.90;;;;;;5116542;28;20176;-57
2021/12/10 07:30:39;;;;;;;6.80;3.50;;;14.20;99.90;;;;;;5098659;28;20097;-58
2021/12/10 07:33:08;;;;;;;9.30;2.78;;;14.40;99.90;;;;;;5098531;28;20032;-58
2021/12/10 07:35:37;;;;;;;4.95;2.75;;;15.20;99.90;;;;;;5098027;28;20415;-59
2021/12/10 07:38:06;;;;;;;8.63;3.08;;;16.50;99.90;;;;;;5081391;28;20454;-59
2021/12/10 07:40:36;;;;;;;3.53;2.08;;;17.40;98.20;;;;;;5098021;28;20470;-58
2021/12/10 07:43:05;;;;;;;3.75;2.17;;;18.20;96.90;;;;;;5098624;28;20035;-59
2021/12/10 07:45:34;;;;;;;6.35;2.40;;;18.40;95.80;;;;;;5116109;28;20442;-59
2021/12/10 07:48:07;;;;;;;4.97;2.15;;;17.70;95.40;;;;;;5098205;28;20135;-60
2021/12/10 07:50:42;;;;;;;4.88;2.25;;;17.90;96.00;;;;;;5116074;28;20036;-59
2021/12/10 07:53:10;;;;;;;7.38;2.30;;;17.70;95.60;;;;;;5116272;28;20122;-60
2021/12/10 07:55:41;;;;;;;23.88;2.38;;;17.50;95.90;;;;;;5081156;28;20446;-59
2021/12/10 07:58:08;;;;;;;6.07;2.88;;;17.80;96.10;;;;;;5116026;28;20545;-60
2021/12/10 08:00:40;;;;;;;3.03;1.92;;;17.70;96.00;;;;;;5115995;28;20067;-59
2021/12/10 08:03:08;;;;;;;3.90;1.67;;;17.80;95.60;;;;;;5115902;28;20046;-60
2021/12/10 08:05:37;;;;;;;5.35;1.90;;;17.80;95.40;;;;;;5097380;28;20381;-59
2021/12/10 08:08:08;;;;;;;3.53;2.25;;;18.00;94.90;;;;;;5115785;28;20036;-59
2021/12/10 08:10:38;;;;;;;3.08;1.52;;;18.00;94.70;;;;;;5115974;28;20036;-59
2021/12/10 08:13:07;;;;;;;2.50;1.35;;;18.00;93.90;;;;;;5116001;28;20473;-59
2021/12/10 08:15:35;;;;;;;2.95;1.67;;;17.70;94.30;;;;;;5115707;28;20043;-59
2021/12/10 08:18:04;;;;;;;3.67;1.60;;;17.20;94.70;;;;;;5115619;28;20042;-59
2021/12/10 08:20:31;;;;;;;5.15;2.22;;;16.80;95.30;;;;;;5080452;28;20051;-58
2021/12/10 08:22:59;;;;;;;7.28;3.42;;;16.10;95.70;;;;;;5115488;28;20054;-59
2021/12/10 08:25:27;;;;;;;7.15;2.78;;;15.50;96.40;;;;;;5115498;28;20114;-59
2021/12/10 08:27:56;;;;;;;6.63;2.85;;;14.80;97.40;;;;;;5115310;28;20039;-59
2021/12/10 08:30:27;;;;;;;8.57;1.65;;;14.50;98.70;;;;;;5115230;28;20049;-59
2021/12/10 08:32:57;;;;;;;4.28;1.48;;;14.40;99.00;;;;;;5115511;28;20118;-59
2021/12/10 08:35:29;;;;;;;3.03;1.58;;;14.50;99.00;;;;;;5115097;28;20358;-59
2021/12/10 08:38:00;;;;;;;3.67;1.60;;;14.60;98.80;;;;;;5115477;28;20130;-58
2021/12/10 08:40:50;;;;;;;3.33;1.52;;;14.80;99.00;;;;;;5094992;28;20363;-62
2021/12/10 08:43:18;;;;;;;3.40;1.50;;;15.20;99.20;;;;;;5087952;28;20056;-59
2021/12/10 08:45:46;;;;;;;3.25;2.08;;;15.10;98.50;;;;;;5092332;28;20493;-59
2021/12/10 08:48:13;;;;;;;3.20;1.45;;;14.90;98.10;;;;;;5110948;28;20097;-59
2021/12/10 08:50:42;;;;;;;6.60;1.60;;;14.60;98.40;;;;;;5108069;28;20507;-61
2021/12/10 08:53:14;;;;;;;2.83;1.20;;;14.40;98.50;;;;;;5102359;28;20434;-59
2021/12/10 08:55:45;;;;;;;3.10;1.75;;;14.40;99.00;;;;;;5104563;28;20507;-58
2021/12/10 08:58:13;;;;;;;2.88;1.38;;;14.40;99.10;;;;;;5104737;28;20032;-58
2021/12/10 09:00:44;;;;;;;7.80;2.38;;;14.40;98.90;;;;;;5091434;28;20502;-59
2021/12/10 09:03:13;;;;;;;6.30;1.67;;;14.60;98.80;;;;;;5087396;28;20032;-59
2021/12/10 09:05:41;;;;;;;2.20;1.20;;;14.60;98.60;;;;;;5078710;28;20031;-59
2021/12/10 09:08:09;;;;;;;1.98;1.15;;;14.50;98.00;;;;;;5101461;28;20453;-59
2021/12/10 09:10:39;;;;;;;2.60;1.58;;;14.80;98.30;;;;;;5093111;28;20064;-59
2021/12/10 09:13:13;;;;;;;4.95;1.60;;;15.00;97.70;;;;;;5104618;28;20102;-59
2021/12/10 09:15:52;;;;;;;2.53;1.05;;;15.20;97.20;;;;;;5095853;28;20055;-59
2021/12/10 09:18:20;;;;;;;3.05;1.73;;;15.10;96.00;;;;;;5089957;28;20038;-59
2021/12/10 09:20:50;;;;;;;1.40;0.85;;;15.00;95.60;;;;;;5094686;28;20384;-59
2021/12/10 09:23:22;;;;;;;2.38;0.93;;;15.10;96.20;;;;;;5072477;28;20123;-59
2021/12/10 09:25:53;;;;;;;2.03;1.10;;;15.20;96.70;;;;;;5093838;28;20072;-59
2021/12/10 09:28:22;;;;;;;1.58;0.95;;;15.30;96.70;;;;;;5094324;28;20447;-59
2021/12/10 09:30:52;;;;;;;2.00;1.27;;;15.40;96.50;;;;;;5058976;28;20160;-59
2021/12/10 09:33:20;;;;;;;2.55;1.20;;;15.50;96.70;;;;;;5093901;28;20055;-59
2021/12/10 09:35:48;;;;;;;3.45;1.33;;;15.50;97.00;;;;;;5094169;28;20119;-59
2021/12/10 09:38:16;;;;;;;4.88;1.70;;;15.60;96.80;;;;;;5093920;28;20043;-59
2021/12/10 09:40:47;;;;;;;2.67;1.65;;;15.80;96.90;;;;;;5094080;28;20458;-58
2021/12/10 09:43:15;;;;;;;2.80;1.60;;;15.80;96.90;;;;;;5075930;28;20462;-59
2021/12/10 09:45:43;;;;;;;2.50;1.42;;;15.80;96.10;;;;;;5093680;28;20183;-59
2021/12/10 09:48:14;;;;;;;4.68;2.28;;;15.80;96.10;;;;;;5093658;28;20128;-59
2021/12/10 09:50:54;;;;;;;2.42;1.58;;;15.60;96.40;;;;;;5093654;28;20038;-58
2021/12/10 09:53:23;;;;;;;5.90;1.38;;;15.60;96.10;;;;;;5059361;28;20044;-58
2021/12/10 09:55:51;;;;;;;3.63;1.58;;;15.60;96.50;;;;;;5093636;28;20165;-59
2021/12/10 09:58:19;;;;;;;3.45;1.50;;;15.80;96.70;;;;;;5075512;28;20490;-59
2021/12/10 10:00:55;;;;;;;3.08;1.42;;;15.80;96.60;;;;;;5093934;28;20044;-58
2021/12/10 10:03:27;;;;;;;2.78;1.20;;;15.70;96.60;;;;;;5093722;28;20036;-58
2021/12/10 10:05:55;;;;;;;2.47;1.67;;;15.60;96.60;;;;;;5093954;28;20119;-59
2021/12/10 10:08:25;;;;;;;3.17;1.20;;;15.60;96.90;;;;;;5092492;28;20051;-59
2021/12/10 10:10:57;;;;;;;3.42;2.38;;;15.70;97.20;;;;;;5075553;28;20042;-59
2021/12/10 10:13:30;;;;;;;7.00;2.22;;;15.70;97.30;;;;;;5075715;28;20079;-59
2021/12/10 10:15:59;;;;;;;2.75;1.77;;;15.70;96.60;;;;;;5092282;28;20377;-59
2021/12/10 10:18:29;;;;;;;3.13;1.83;;;15.70;96.60;;;;;;5075526;28;20067;-59
2021/12/10 10:21:04;;;;;;;1.77;1.02;;;15.50;96.30;;;;;;5093737;28;20040;-59
2021/12/10 10:23:31;;;;;;;5.20;2.25;;;15.50;96.10;;;;;;5075665;28;20054;-59
2021/12/10 10:26:03;;;;;;;3.05;1.55;;;15.50;96.00;;;;;;5075693;28;20044;-58
2021/12/10 10:28:31;;;;;;;2.15;1.13;;;15.50;96.00;;;;;;5075558;28;20036;-59
2021/12/10 10:31:04;;;;;;;2.00;1.40;;;15.60;96.10;;;;;;5079108;28;20056;-59
2021/12/10 10:33:34;;;;;;;3.42;1.48;;;15.70;96.00;;;;;;5097303;28;20040;-59
2021/12/10 10:36:08;;;;;;;1.95;1.23;;;15.80;96.20;;;;;;5097199;28;20075;-59
2021/12/10 10:38:35;;;;;;;3.30;1.50;;;15.80;95.40;;;;;;5079387;28;20032;-59
2021/12/10 10:41:09;;;;;;;3.30;1.63;;;15.90;94.60;;;;;;5097101;28;20493;-59
2021/12/10 10:43:38;;;;;;;3.17;1.30;;;16.00;94.80;;;;;;5095278;28;20083;-59
2021/12/10 10:46:06;;;;;;;2.00;1.23;;;15.90;94.80;;;;;;5097033;28;20048;-59
2021/12/10 10:48:34;;;;;;;1.10;0.93;;;16.00;94.70;;;;;;5062238;28;20086;-59
2021/12/10 10:51:07;;;;;;;2.30;1.10;;;16.00;94.60;;;;;;5062320;28;20052;-59
2021/12/10 10:53:43;;;;;;;3.53;1.35;;;16.00;94.40;;;;;;5079268;28;20385;-59
2021/12/10 10:56:31;;;;;;;4.20;1.50;;;15.90;93.50;;;;;;5096892;28;20067;-59
2021/12/10 10:59:03;;;;;;;4.60;2.63;;;15.90;93.50;;;;;;5078670;28;20484;-59
2021/12/10 11:01:39;;;;;;;8.10;5.75;;;16.00;94.00;;;;;;5096671;28;20122;-59
2021/12/10 11:04:23;;;;;;;6.85;4.40;;;15.90;93.90;;;;;;5096626;28;20042;-60
2021/12/10 11:06:56;;;;;;;10.98;4.97;;;15.80;93.90;;;;;;5097017;28;20044;-59
2021/12/10 11:09:28;;;;;;;4.53;2.85;;;15.60;94.10;;;;;;5078785;28;20074;-60
2021/12/10 11:12:02;;;;;;;3.05;2.35;;;15.60;94.10;;;;;;5062251;28;20134;-60
2021/12/10 11:14:42;;;;;;;3.28;1.70;;;15.50;94.30;;;;;;5096641;28;20127;-59
2021/12/10 11:17:12;;;;;;;2.08;1.35;;;15.40;93.80;;;;;;5058509;28;20048;-59
2021/12/10 11:20:07;;;;;;;10.00;6.07;;;15.50;93.60;;;;;;5088489;28;20501;-59
2021/12/10 11:22:43;;;;;;;6.75;4.07;;;15.40;94.00;;;;;;5061987;28;20486;-59
2021/12/10 11:25:14;;;;;;;8.77;4.73;;;15.20;93.90;;;;;;5061348;28;20425;-60
2021/12/10 11:27:44;;;;;;;6.68;2.80;;;15.10;94.20;;;;;;5096442;28;20122;-59
2021/12/10 11:30:29;;;;;;;5.75;3.95;;;15.10;94.30;;;;;;5096309;28;20047;-60
2021/12/10 11:33:14;;;;;;;6.15;2.83;;;15.20;94.70;;;;;;5095089;28;20432;-59
2021/12/10 11:35:47;;;;;;;3.22;2.58;;;15.30;95.00;;;;;;5095025;28;20134;-60
2021/12/10 11:38:18;;;;;;;5.88;1.90;;;15.40;94.70;;;;;;5077981;28;20493;-59
2021/12/10 11:40:56;;;;;;;2.58;1.70;;;15.50;94.10;;;;;;5095347;28;20072;-59
2021/12/10 11:49:33;;;;;;;1.40;1.00;;;15.50;93.10;;;;;;5094530;28;20397;-59
2021/12/10 11:52:06;;;;;;;3.57;1.43;;;15.40;93.10;;;;;;5094956;28;20079;-59
2021/12/10 11:54:41;;;;;;;3.47;1.92;;;15.40;93.30;;;;;;5060932;28;20040;-59
2021/12/10 11:57:13;;;;;;;1.50;1.00;;;15.30;93.20;;;;;;5095732;28;20534;-60
2021/12/10 11:59:48;;;;;;;6.10;1.95;;;15.30;92.90;;;;;;5094249;28;20389;-59
2021/12/10 12:02:25;;;;;;;3.95;2.13;;;15.20;93.00;;;;;;5095545;28;20127;-59
2021/12/10 12:05:07;;;;;;;5.63;2.63;;;15.20;93.50;;;;;;5095461;28;20040;-59
2021/12/10 12:07:39;;;;;;;3.47;1.85;;;15.30;93.60;;;;;;5060875;28;20032;-59
2021/12/10 12:10:23;;;;;;;4.07;2.28;;;15.30;92.80;;;;;;5094214;28;20044;-60
2021/12/10 12:13:30;;;;;;;6.15;2.20;;;15.40;92.00;;;;;;5077619;28;20040;-59
2021/12/10 12:15:57;;;;;;;2.65;1.50;;;15.40;93.00;;;;;;5094070;28;20127;-59
2021/12/10 12:18:52;;;;;;;3.15;1.60;;;15.20;92.80;;;;;;5095142;28;20036;-59
2021/12/10 12:27:10;;;;;;;3.13;1.50;;;15.30;93.70;;;;;;5076398;28;20478;-59
2021/12/10 12:29:48;;;;;;;1.75;1.23;;;15.30;93.30;;;;;;5100808;28;20066;-59
2021/12/10 12:32:24;;;;;;;1.25;1.00;;;15.30;93.20;;;;;;5104310;28;20036;-60
2021/12/10 12:34:52;;;;;;;1.58;1.08;;;15.20;93.60;;;;;;5111646;27;20757;-60
2021/12/10 12:37:22;;;;;;;2.10;1.25;;;15.30;93.40;;;;;;5098040;27;20088;-59
2021/12/10 12:39:56;;;;;;;3.00;1.42;;;15.30;93.80;;;;;;5103514;27;20130;-59
2021/12/10 12:42:31;;;;;;;2.38;1.52;;;15.40;94.00;;;;;;5112234;28;20385;-60
2021/12/10 12:45:13;;;;;;;2.13;1.33;;;15.40;93.80;;;;;;5124240;27;20050;-59
2021/12/10 12:47:47;;;;;;;2.63;0.80;;;15.30;93.90;;;;;;5113771;27;20027;-59
2021/12/10 12:50:28;;;;;;;2.45;1.77;;;15.30;93.60;;;;;;5092080;28;20047;-59
2021/12/10 12:53:03;;;;;;;5.90;2.10;;;15.30;94.10;;;;;;5095845;27;20046;-59
2021/12/10 12:55:44;;;;;;;2.83;1.75;;;15.30;94.50;;;;;;5092593;27;20043;-61
2021/12/10 12:58:18;;;;;;;2.35;1.23;;;15.20;94.40;;;;;;5126896;27;20023;-59
2021/12/10 13:01:04;;;;;;;1.70;1.08;;;15.10;93.90;;;;;;5116128;27;20039;-60
2021/12/10 13:03:37;;;;;;;2.87;1.27;;;15.00;93.70;;;;;;5097118;28;20647;-59
2021/12/10 13:06:25;;;;;;;1.17;1.00;;;14.90;93.70;;;;;;5093569;28;20278;-59
2021/12/10 13:08:59;;;;;;;2.45;1.27;;;14.90;94.70;;;;;;5106025;28;20040;-60
2021/12/10 13:11:46;;;;;;;2.70;1.35;;;14.90;94.20;;;;;;5114490;28;20788;-59
2021/12/10 13:14:18;;;;;;;3.80;1.42;;;14.90;93.90;;;;;;5114752;28;20074;-59
2021/12/10 13:16:57;;;;;;;3.42;1.45;;;14.90;93.30;;;;;;5114701;28;20043;-59
2021/12/10 13:19:30;;;;;;;3.42;1.75;;;14.70;93.20;;;;;;5096386;28;20039;-59
2021/12/10 13:22:07;;;;;;;1.50;0.90;;;14.70;93.00;;;;;;5114451;28;20058;-59
2021/12/10 13:24:37;;;;;;;2.42;1.20;;;14.50;92.70;;;;;;5079738;28;20050;-59
2021/12/10 13:27:07;;;;;;;2.78;1.73;;;14.50;93.30;;;;;;5096663;28;20092;-59
2021/12/10 13:29:36;;;;;;;3.63;1.77;;;14.40;93.80;;;;;;5114589;28;20035;-59
2021/12/10 13:32:06;;;;;;;2.35;1.25;;;14.40;93.80;;;;;;5096175;28;20035;-59
2021/12/10 13:34:34;;;;;;;2.83;1.23;;;14.50;93.70;;;;;;5096490;28;20062;-59